Time;durP1;ratioP1;P1;durP2;ratioP2;P2;SDS_P1;SDS_P2;PMS_P1;PMS_P2;Temp;Humidity;BMP_temperature;BMP_pressure;BME280_temperature;BME280_humidity;BME280_pressure;Samples;Min_cycle;Max_cycle;Signal;HPM_P1;HPM_P2
2021/07/17 00:02:17;;;;;;;10.00;4.00;;;;;24.00;102428.00;;;;5079924;28;20214;-76
2021/07/17 00:04:44;;;;;;;12.07;4.00;;;;;23.90;102431.00;;;;5069231;28;20715;-77
2021/07/17 00:07:12;;;;;;;5.22;3.13;;;;;23.90;102435.00;;;;5070111;28;20988;-77
2021/07/17 00:09:39;;;;;;;8.20;3.55;;;;;23.90;102446.00;;;;5070426;28;20603;-77
2021/07/17 00:12:09;;;;;;;7.78;3.58;;;;;23.90;102435.00;;;;5069875;28;20222;-76
2021/07/17 00:14:36;;;;;;;7.30;3.58;;;;;23.90;102436.00;;;;5082630;28;20214;-76
2021/07/17 00:17:04;;;;;;;8.38;4.35;;;;;23.90;102445.00;;;;5069860;28;20198;-76
2021/07/17 00:19:31;;;;;;;7.22;3.50;;;;;23.90;102444.00;;;;5070184;28;20203;-76
2021/07/17 00:21:58;;;;;;;7.72;3.67;;;;;23.90;102445.00;;;;5069317;28;20207;-77
2021/07/17 00:24:26;;;;;;;7.22;3.53;;;;;23.80;102440.00;;;;5070592;28;20207;-77
2021/07/17 00:26:53;;;;;;;11.38;4.80;;;;;23.80;102439.00;;;;5070165;28;20206;-76
2021/07/17 00:29:21;;;;;;;8.18;3.30;;;;;23.80;102442.00;;;;5070523;28;20199;-76
2021/07/17 00:31:48;;;;;;;9.15;3.35;;;;;23.80;102447.00;;;;5069950;28;20230;-76
2021/07/17 00:34:16;;;;;;;6.45;3.03;;;;;23.80;102443.00;;;;5069835;28;20195;-76
2021/07/17 00:36:43;;;;;;;6.57;3.35;;;;;23.80;102441.00;;;;5070467;28;21152;-77
2021/07/17 00:39:11;;;;;;;8.15;3.88;;;;;23.80;102432.00;;;;5070012;28;20195;-76
2021/07/17 00:41:38;;;;;;;7.50;3.13;;;;;23.70;102440.00;;;;5069816;28;20199;-76
2021/07/17 00:44:07;;;;;;;6.20;3.53;;;;;23.70;102447.00;;;;5070091;28;20206;-76
2021/07/17 00:46:37;;;;;;;13.35;4.10;;;;;23.70;102435.00;;;;5070004;28;20203;-77
2021/07/17 00:49:07;;;;;;;8.38;3.03;;;;;23.60;102439.00;;;;5070033;28;20194;-77
2021/07/17 00:51:35;;;;;;;5.03;3.13;;;;;23.60;102438.00;;;;5077500;28;20226;-76
2021/07/17 00:54:04;;;;;;;6.32;2.75;;;;;23.50;102433.00;;;;5070092;28;20191;-76
2021/07/17 00:56:33;;;;;;;14.15;4.00;;;;;23.50;102442.00;;;;5070532;28;20191;-77
2021/07/17 00:59:02;;;;;;;10.30;3.58;;;;;23.50;102436.00;;;;5070256;28;20191;-76
2021/07/17 01:01:31;;;;;;;13.38;3.97;;;;;23.60;102438.00;;;;5073535;28;20194;-77
2021/07/17 01:04:00;;;;;;;11.02;3.65;;;;;23.50;102442.00;;;;5081146;28;20240;-77
2021/07/17 01:06:28;;;;;;;9.45;4.00;;;;;23.60;102436.00;;;;5083913;28;20191;-77
2021/07/17 01:08:55;;;;;;;7.13;3.63;;;;;23.50;102436.00;;;;5069476;28;20213;-76
2021/07/17 01:11:22;;;;;;;9.85;3.35;;;;;23.50;102431.00;;;;5070744;28;20226;-76
2021/07/17 01:13:49;;;;;;;8.18;2.97;;;;;23.50;102432.00;;;;5068882;28;20592;-77
2021/07/17 01:16:17;;;;;;;5.88;3.28;;;;;23.50;102438.00;;;;5070591;28;20211;-77
2021/07/17 01:18:44;;;;;;;7.82;3.53;;;;;23.50;102436.00;;;;5077164;28;20194;-77
2021/07/17 01:21:17;;;;;;;9.25;3.80;;;;;23.40;102434.00;;;;5089408;28;20386;-77
2021/07/17 01:23:45;;;;;;;12.43;4.18;;;;;23.50;102431.00;;;;5068620;28;20199;-76
2021/07/17 01:26:13;;;;;;;5.80;3.30;;;;;23.50;102430.00;;;;5069579;28;20207;-76
2021/07/17 01:28:40;;;;;;;7.03;2.83;;;;;23.50;102426.00;;;;5068830;28;20197;-76
2021/07/17 01:31:08;;;;;;;7.75;3.20;;;;;23.50;102436.00;;;;5069146;28;20233;-76
2021/07/17 01:33:35;;;;;;;12.50;4.15;;;;;23.50;102442.00;;;;5075905;28;20222;-76
2021/07/17 01:36:03;;;;;;;6.22;3.42;;;;;23.50;102438.00;;;;5083573;28;20221;-76
2021/07/17 01:38:31;;;;;;;12.60;3.72;;;;;23.40;102431.00;;;;5078572;28;20187;-77
2021/07/17 01:40:59;;;;;;;9.98;3.88;;;;;23.50;102434.00;;;;5074205;28;20195;-77
2021/07/17 01:43:26;;;;;;;10.38;3.88;;;;;23.50;102438.00;;;;5087021;28;20217;-76
2021/07/17 01:45:59;;;;;;;11.10;4.03;;;;;23.40;102442.00;;;;5088836;28;20697;-77
2021/07/17 01:48:27;;;;;;;7.57;3.42;;;;;23.40;102430.00;;;;5073780;28;20248;-77
2021/07/17 01:50:55;;;;;;;9.05;3.03;;;;;23.40;102432.00;;;;5068564;28;20202;-76
2021/07/17 01:53:24;;;;;;;8.02;3.92;;;;;23.50;102435.00;;;;5068432;28;20274;-76
2021/07/17 01:55:53;;;;;;;12.48;4.07;;;;;23.40;102421.00;;;;5068460;28;20202;-76
2021/07/17 01:58:21;;;;;;;9.27;3.80;;;;;23.50;102429.00;;;;5069231;28;20209;-76
2021/07/17 02:00:48;;;;;;;7.68;3.20;;;;;23.50;102426.00;;;;5069288;28;20210;-76
2021/07/17 02:03:15;;;;;;;8.45;3.88;;;;;23.50;102428.00;;;;5073092;28;20218;-76
2021/07/17 02:05:43;;;;;;;14.23;4.68;;;;;23.50;102419.00;;;;5070631;28;20475;-76
2021/07/17 02:08:13;;;;;;;13.82;4.00;;;;;23.50;102413.00;;;;5088454;28;20975;-76
2021/07/17 02:10:41;;;;;;;7.38;3.58;;;;;23.50;102420.00;;;;5085148;28;20686;-76
2021/07/17 02:13:12;;;;;;;10.68;4.35;;;;;23.50;102418.00;;;;5077832;28;20225;-76
2021/07/17 02:15:43;;;;;;;9.15;3.75;;;;;23.50;102411.00;;;;5072129;28;20206;-76
2021/07/17 02:18:11;;;;;;;9.98;3.35;;;;;23.50;102418.00;;;;5068543;28;20205;-76
2021/07/17 02:20:39;;;;;;;7.78;3.70;;;;;23.50;102415.00;;;;5077381;28;20282;-76
2021/07/17 02:23:06;;;;;;;7.75;3.50;;;;;23.50;102412.00;;;;5080833;28;20213;-76
2021/07/17 02:25:34;;;;;;;6.43;3.28;;;;;23.50;102416.00;;;;5073035;28;20198;-76
2021/07/17 02:28:01;;;;;;;9.63;3.20;;;;;23.40;102418.00;;;;5081374;28;20199;-76
2021/07/17 02:30:31;;;;;;;10.60;4.40;;;;;23.40;102427.00;;;;5068238;28;20201;-76
2021/07/17 02:32:59;;;;;;;9.45;3.78;;;;;23.40;102431.00;;;;5073225;28;20223;-76
2021/07/17 02:35:26;;;;;;;9.02;3.83;;;;;23.40;102423.00;;;;5082950;28;20238;-76
2021/07/17 02:37:54;;;;;;;5.50;2.97;;;;;23.40;102425.00;;;;5068037;28;20191;-76
2021/07/17 02:40:21;;;;;;;8.50;3.97;;;;;23.30;102417.00;;;;5068290;28;20213;-76
2021/07/17 02:42:49;;;;;;;6.38;3.60;;;;;23.30;102426.00;;;;5068551;28;20191;-76
2021/07/17 02:45:16;;;;;;;12.20;3.97;;;;;23.30;102422.00;;;;5067990;28;20672;-76
2021/07/17 02:47:44;;;;;;;8.23;3.35;;;;;23.20;102428.00;;;;5068069;28;20202;-76
2021/07/17 02:50:13;;;;;;;7.43;3.78;;;;;23.20;102426.00;;;;5067943;28;20203;-76
2021/07/17 02:52:40;;;;;;;6.90;2.67;;;;;23.10;102425.00;;;;5071600;28;20229;-76
2021/07/17 02:55:09;;;;;;;10.73;3.75;;;;;23.10;102434.00;;;;5087600;28;20202;-76
2021/07/17 02:57:36;;;;;;;9.02;4.97;;;;;23.00;102431.00;;;;5084217;28;20211;-76
2021/07/17 03:00:07;;;;;;;5.78;3.30;;;;;23.00;102427.00;;;;5067993;28;20199;-76
2021/07/17 03:02:34;;;;;;;6.88;3.28;;;;;23.00;102428.00;;;;5067347;28;20672;-76
2021/07/17 03:05:03;;;;;;;10.63;3.60;;;;;22.90;102424.00;;;;5067798;28;20210;-76
2021/07/17 03:07:30;;;;;;;6.13;3.08;;;;;22.90;102423.00;;;;5068585;28;20210;-76
2021/07/17 03:09:57;;;;;;;9.80;4.15;;;;;22.80;102426.00;;;;5067801;28;20195;-76
2021/07/17 03:12:25;;;;;;;11.25;3.58;;;;;22.80;102422.00;;;;5067369;28;20230;-76
2021/07/17 03:14:52;;;;;;;6.32;3.05;;;;;22.80;102416.00;;;;5068404;28;20194;-76
2021/07/17 03:17:19;;;;;;;8.85;3.95;;;;;22.70;102423.00;;;;5068187;28;20194;-76
2021/07/17 03:19:46;;;;;;;8.57;3.63;;;;;22.70;102425.00;;;;5067375;28;20217;-76
2021/07/17 03:22:15;;;;;;;10.25;3.58;;;;;22.60;102428.00;;;;5069997;28;20661;-76
2021/07/17 03:24:42;;;;;;;8.07;3.08;;;;;22.60;102428.00;;;;5070566;28;20775;-76
2021/07/17 03:27:09;;;;;;;4.05;2.72;;;;;22.60;102423.00;;;;5071393;28;20202;-76
2021/07/17 03:29:36;;;;;;;7.57;3.17;;;;;22.50;102420.00;;;;5071448;28;20187;-76
2021/07/17 03:32:04;;;;;;;5.55;3.20;;;;;22.50;102424.00;;;;5071981;28;20222;-76
2021/07/17 03:34:31;;;;;;;7.72;4.13;;;;;22.50;102424.00;;;;5071216;28;20203;-76
2021/07/17 03:36:59;;;;;;;11.73;3.97;;;;;22.40;102427.00;;;;5070643;28;20676;-76
2021/07/17 03:39:27;;;;;;;6.78;3.80;;;;;22.40;102418.00;;;;5071798;28;20195;-76
2021/07/17 03:41:55;;;;;;;6.72;3.53;;;;;22.40;102416.00;;;;5090822;28;20187;-76
2021/07/17 03:44:26;;;;;;;5.80;2.53;;;;;22.30;102417.00;;;;5091419;28;20205;-76
2021/07/17 03:46:54;;;;;;;5.97;3.22;;;;;22.30;102417.00;;;;5089086;28;20213;-76
2021/07/17 03:49:21;;;;;;;10.07;3.17;;;;;22.30;102417.00;;;;5075393;28;20187;-76
2021/07/17 03:51:49;;;;;;;6.72;3.83;;;;;22.30;102419.00;;;;5070705;28;20215;-76
2021/07/17 03:54:16;;;;;;;5.00;3.28;;;;;22.20;102418.00;;;;5077310;28;20202;-76
2021/07/17 03:56:44;;;;;;;7.93;3.30;;;;;22.20;102423.00;;;;5071889;28;20202;-76
2021/07/17 03:59:12;;;;;;;8.02;3.45;;;;;22.20;102423.00;;;;5071251;28;20203;-76
2021/07/17 04:01:39;;;;;;;8.10;3.28;;;;;22.20;102424.00;;;;5069946;28;20203;-76
2021/07/17 04:04:08;;;;;;;7.60;2.95;;;;;22.20;102414.00;;;;5070634;28;20195;-76
2021/07/17 04:06:36;;;;;;;9.75;3.75;;;;;22.20;102426.00;;;;5071435;28;20213;-76
2021/07/17 04:09:04;;;;;;;8.27;3.45;;;;;22.20;102426.00;;;;5070372;28;20218;-76
2021/07/17 04:11:31;;;;;;;7.13;2.63;;;;;22.10;102427.00;;;;5070617;28;20565;-76
2021/07/17 04:14:00;;;;;;;7.20;3.20;;;;;22.10;102431.00;;;;5074153;28;20232;-76
2021/07/17 04:16:27;;;;;;;7.45;3.20;;;;;22.10;102428.00;;;;5079500;28;20210;-76
2021/07/17 04:18:54;;;;;;;5.72;3.33;;;;;22.10;102427.00;;;;5086601;28;20191;-76
2021/07/17 04:21:22;;;;;;;6.82;3.45;;;;;22.10;102424.00;;;;5070526;28;20206;-76
2021/07/17 04:23:49;;;;;;;7.03;3.65;;;;;22.10;102433.00;;;;5088135;28;20194;-76
2021/07/17 04:26:16;;;;;;;8.07;3.20;;;;;22.10;102438.00;;;;5090744;28;20194;-76
2021/07/17 04:28:44;;;;;;;6.72;3.53;;;;;22.10;102443.00;;;;5088737;28;20288;-76
2021/07/17 04:31:12;;;;;;;11.60;3.42;;;;;22.10;102440.00;;;;5091164;28;20202;-76
2021/07/17 04:33:40;;;;;;;4.90;3.35;;;;;22.10;102440.00;;;;5070379;28;20707;-76
2021/07/17 04:36:10;;;;;;;9.23;3.20;;;;;22.10;102443.00;;;;5086397;28;20232;-76
2021/07/17 04:38:37;;;;;;;9.77;4.10;;;;;22.10;102441.00;;;;5082513;28;20232;-76
2021/07/17 04:41:04;;;;;;;9.60;3.35;;;;;22.20;102436.00;;;;5084871;28;20203;-76
2021/07/17 04:43:32;;;;;;;10.25;3.55;;;;;22.20;102437.00;;;;5073759;28;20195;-76
2021/07/17 04:45:59;;;;;;;6.18;3.08;;;;;22.20;102436.00;;;;5069976;28;20202;-76
2021/07/17 04:48:28;;;;;;;6.85;3.30;;;;;22.20;102438.00;;;;5077611;28;20203;-76
2021/07/17 04:50:55;;;;;;;6.57;3.17;;;;;22.20;102441.00;;;;5085210;28;20199;-76
2021/07/17 04:53:23;;;;;;;6.28;2.88;;;;;22.20;102446.00;;;;5087293;28;20214;-76
2021/07/17 04:55:50;;;;;;;12.73;3.90;;;;;22.30;102435.00;;;;5087579;28;20656;-76
2021/07/17 04:58:17;;;;;;;9.65;4.07;;;;;22.30;102441.00;;;;5084545;28;20202;-76
2021/07/17 05:00:44;;;;;;;8.90;3.50;;;;;22.30;102441.00;;;;5081083;28;20764;-76
2021/07/17 05:03:12;;;;;;;7.43;2.97;;;;;22.30;102440.00;;;;5084931;28;20199;-76
2021/07/17 05:05:41;;;;;;;6.85;3.10;;;;;22.30;102433.00;;;;5089326;28;20194;-76
2021/07/17 05:08:09;;;;;;;8.13;3.42;;;;;22.30;102441.00;;;;5085735;28;20572;-76
2021/07/17 05:10:36;;;;;;;7.65;3.75;;;;;22.40;102438.00;;;;5081382;28;20664;-76
2021/07/17 05:13:11;;;;;;;7.63;3.38;;;;;22.30;102441.00;;;;5081732;28;20244;-76
2021/07/17 05:15:38;;;;;;;7.22;3.40;;;;;22.40;102440.00;;;;5080711;28;20710;-77
2021/07/17 05:18:06;;;;;;;5.32;2.97;;;;;22.40;102435.00;;;;5081437;28;20190;-76
2021/07/17 05:20:33;;;;;;;9.90;4.15;;;;;22.50;102447.00;;;;5087962;28;20194;-76
2021/07/17 05:23:02;;;;;;;7.38;2.78;;;;;22.50;102443.00;;;;5084822;28;20189;-76
2021/07/17 05:25:29;;;;;;;7.22;3.28;;;;;22.50;102443.00;;;;5087951;28;20186;-76
2021/07/17 05:27:57;;;;;;;6.80;3.15;;;;;22.50;102444.00;;;;5086569;28;20323;-76
2021/07/17 05:30:25;;;;;;;8.02;3.55;;;;;22.60;102452.00;;;;5079756;28;20202;-77
2021/07/17 05:32:52;;;;;;;7.30;3.42;;;;;22.60;102449.00;;;;5080479;28;20223;-76
2021/07/17 05:35:19;;;;;;;17.73;3.58;;;;;22.60;102449.00;;;;5082677;28;20668;-76
2021/07/17 05:37:47;;;;;;;6.55;3.45;;;;;22.70;102450.00;;;;5087072;28;20190;-76
2021/07/17 05:40:16;;;;;;;6.70;3.17;;;;;22.70;102456.00;;;;5079643;28;20984;-76
2021/07/17 05:42:43;;;;;;;8.73;3.45;;;;;22.80;102455.00;;;;5073372;28;20202;-76
2021/07/17 05:45:11;;;;;;;6.57;3.45;;;;;22.80;102454.00;;;;5076814;28;20191;-76
2021/07/17 05:47:39;;;;;;;6.32;3.05;;;;;22.90;102453.00;;;;5077058;28;20698;-76
2021/07/17 05:50:07;;;;;;;8.55;4.00;;;;;22.90;102445.00;;;;5085398;28;20203;-76
2021/07/17 05:52:34;;;;;;;8.10;2.80;;;;;23.00;102457.00;;;;5076393;28;20229;-76
2021/07/17 05:55:02;;;;;;;6.35;3.20;;;;;23.00;102458.00;;;;5088862;28;20199;-76
2021/07/17 05:57:32;;;;;;;6.47;2.95;;;;;23.10;102456.00;;;;5086366;28;20195;-76
2021/07/17 05:59:59;;;;;;;8.15;3.00;;;;;23.20;102472.00;;;;5076779;28;20191;-75
2021/07/17 06:02:26;;;;;;;8.23;2.60;;;;;23.20;102471.00;;;;5079672;28;20209;-76
2021/07/17 06:04:54;;;;;;;12.40;2.80;;;;;23.30;102467.00;;;;5075664;28;20210;-76
2021/07/17 06:07:21;;;;;;;9.98;3.17;;;;;23.40;102466.00;;;;5079690;28;20221;-76
2021/07/17 06:09:48;;;;;;;6.60;2.63;;;;;23.40;102461.00;;;;5083682;28;20208;-76
2021/07/17 06:12:16;;;;;;;7.88;2.53;;;;;23.50;102470.00;;;;5086633;28;20205;-76
2021/07/17 06:14:44;;;;;;;6.47;2.22;;;;;23.60;102459.00;;;;5086145;28;20218;-76
2021/07/17 06:17:12;;;;;;;7.03;2.38;;;;;23.70;102464.00;;;;5086008;28;20206;-76
2021/07/17 06:19:40;;;;;;;5.70;2.22;;;;;23.80;102470.00;;;;5079119;28;20216;-76
2021/07/17 06:22:08;;;;;;;5.43;2.35;;;;;23.80;102474.00;;;;5076732;28;20195;-76
2021/07/17 06:24:36;;;;;;;5.80;2.15;;;;;23.90;102478.00;;;;5074378;28;20194;-77
2021/07/17 06:27:04;;;;;;;9.10;2.28;;;;;24.00;102473.00;;;;5072202;28;20199;-76
2021/07/17 06:29:31;;;;;;;7.55;2.35;;;;;24.10;102480.00;;;;5069568;28;20194;-76
2021/07/17 06:32:00;;;;;;;5.20;2.03;;;;;24.10;102472.00;;;;5086496;28;20194;-78
2021/07/17 06:34:27;;;;;;;7.00;2.20;;;;;24.20;102480.00;;;;5075843;28;20219;-77
2021/07/17 06:36:54;;;;;;;7.38;2.03;;;;;24.30;102484.00;;;;5069846;28;20627;-77
2021/07/17 06:39:21;;;;;;;9.30;1.83;;;;;24.40;102477.00;;;;5077745;28;20199;-78
2021/07/17 06:41:49;;;;;;;3.90;1.52;;;;;24.40;102478.00;;;;5076459;28;20292;-77
2021/07/17 06:44:17;;;;;;;6.03;1.58;;;;;24.50;102486.00;;;;5077638;28;20197;-78
2021/07/17 06:46:44;;;;;;;4.82;2.22;;;;;24.60;102492.00;;;;5080836;28;20913;-77
2021/07/17 06:49:12;;;;;;;9.75;1.90;;;;;24.60;102491.00;;;;5073406;28;20705;-76
2021/07/17 06:51:39;;;;;;;2.30;1.52;;;;;24.70;102493.00;;;;5087046;28;20195;-76
2021/07/17 06:54:07;;;;;;;3.90;1.33;;;;;24.80;102504.00;;;;5077781;28;20226;-77
2021/07/17 06:56:34;;;;;;;4.93;1.70;;;;;24.90;102499.00;;;;5083745;28;20229;-76
2021/07/17 06:59:01;;;;;;;8.43;1.95;;;;;25.00;102505.00;;;;5075715;28;20191;-77
2021/07/17 07:01:29;;;;;;;5.40;1.50;;;;;25.10;102502.00;;;;5074860;28;20226;-76
2021/07/17 07:03:56;;;;;;;5.82;1.83;;;;;25.20;102509.00;;;;5083922;28;20202;-76
2021/07/17 07:06:25;;;;;;;3.50;1.73;;;;;25.30;102510.00;;;;5084381;28;20206;-77
2021/07/17 07:08:52;;;;;;;4.68;1.58;;;;;25.40;102509.00;;;;5071805;28;20195;-76
2021/07/17 07:11:19;;;;;;;5.15;1.58;;;;;25.50;102509.00;;;;5070837;28;20205;-77
2021/07/17 07:13:46;;;;;;;3.30;1.48;;;;;25.60;102515.00;;;;5076009;28;20222;-77
2021/07/17 07:16:14;;;;;;;3.28;1.42;;;;;25.60;102525.00;;;;5080495;28;20199;-77
2021/07/17 07:18:41;;;;;;;4.85;1.73;;;;;25.60;102516.00;;;;5081707;28;20552;-76
2021/07/17 07:21:08;;;;;;;4.00;1.52;;;;;25.70;102520.00;;;;5078622;28;20194;-77
2021/07/17 07:23:37;;;;;;;6.95;1.92;;;;;25.70;102517.00;;;;5077264;28;20206;-76
2021/07/17 07:26:04;;;;;;;4.13;1.65;;;;;25.80;102522.00;;;;5079034;28;20202;-76
2021/07/17 07:28:31;;;;;;;4.60;1.85;;;;;25.90;102525.00;;;;5086536;28;20644;-76
2021/07/17 07:30:58;;;;;;;4.43;1.08;;;;;26.00;102521.00;;;;5085423;28;20202;-76
2021/07/17 07:33:26;;;;;;;4.43;1.60;;;;;26.10;102535.00;;;;5077791;28;20721;-77
2021/07/17 07:35:53;;;;;;;3.67;1.17;;;;;26.20;102528.00;;;;5076084;28;20230;-77
2021/07/17 07:38:20;;;;;;;5.85;1.17;;;;;26.30;102525.00;;;;5077601;28;20191;-78
2021/07/17 07:40:49;;;;;;;5.20;2.42;;;;;26.30;102520.00;;;;5077837;28;20186;-77
2021/07/17 07:43:16;;;;;;;4.03;1.40;;;;;26.40;102530.00;;;;5069979;28;20210;-78
2021/07/17 07:45:43;;;;;;;2.53;1.42;;;;;26.50;102539.00;;;;5068881;28;20199;-77
2021/07/17 07:48:11;;;;;;;3.00;1.20;;;;;26.60;102537.00;;;;5073301;28;20199;-81
2021/07/17 07:50:38;;;;;;;2.53;1.48;;;;;26.60;102537.00;;;;5084089;28;20230;-81
2021/07/17 07:53:05;;;;;;;5.05;1.60;;;;;26.70;102540.00;;;;5070469;28;20265;-82
2021/07/17 07:55:32;;;;;;;2.22;1.02;;;;;26.80;102530.00;;;;5071425;28;20217;-81
2021/07/17 07:58:01;;;;;;;2.67;1.30;;;;;26.90;102526.00;;;;5078142;28;20195;-82
2021/07/17 08:00:28;;;;;;;5.30;1.85;;;;;27.00;102528.00;;;;5084640;28;20214;-80
2021/07/17 08:02:56;;;;;;;2.97;1.60;;;;;27.10;102530.00;;;;5078126;28;20195;-81
2021/07/17 08:05:23;;;;;;;5.25;1.70;;;;;27.20;102524.00;;;;5084179;28;20198;-82
2021/07/17 08:07:51;;;;;;;4.40;1.33;;;;;27.30;102526.00;;;;5073540;28;20206;-81
2021/07/17 08:10:18;;;;;;;2.40;1.10;;;;;27.40;102530.00;;;;5069885;28;20206;-82
2021/07/17 08:12:45;;;;;;;4.00;1.63;;;;;27.50;102531.00;;;;5070916;28;20214;-81
2021/07/17 08:15:14;;;;;;;3.15;1.13;;;;;27.50;102527.00;;;;5080512;28;20589;-80
2021/07/17 08:17:42;;;;;;;1.95;1.05;;;;;27.60;102533.00;;;;5068956;28;20744;-80
2021/07/17 08:20:10;;;;;;;1.92;1.20;;;;;27.70;102533.00;;;;5083385;28;20206;-78
2021/07/17 08:22:38;;;;;;;7.25;1.63;;;;;27.70;102527.00;;;;5074688;28;20206;-78
2021/07/17 08:25:07;;;;;;;3.63;1.00;;;;;27.80;102534.00;;;;5070010;28;20202;-77
2021/07/17 08:27:35;;;;;;;2.53;1.23;;;;;27.80;102532.00;;;;5070432;28;20194;-80
2021/07/17 08:30:02;;;;;;;2.58;1.10;;;;;27.90;102536.00;;;;5070212;28;20198;-78
2021/07/17 08:32:31;;;;;;;4.25;1.40;;;;;27.90;102533.00;;;;5081752;28;20194;-77
2021/07/17 08:34:58;;;;;;;2.28;1.38;;;;;28.00;102527.00;;;;5085412;28;20230;-77
2021/07/17 08:37:25;;;;;;;3.65;1.17;;;;;28.10;102537.00;;;;5074625;28;20206;-77
2021/07/17 08:39:52;;;;;;;4.20;1.08;;;;;28.10;102534.00;;;;5072017;28;20615;-79
2021/07/17 08:42:24;;;;;;;3.17;1.20;;;;;28.20;102533.00;;;;5070666;28;20203;-77
2021/07/17 08:44:54;;;;;;;3.88;1.00;;;;;28.20;102545.00;;;;5080529;28;20194;-78
2021/07/17 08:47:21;;;;;;;3.75;1.45;;;;;28.30;102538.00;;;;5069170;28;20257;-77
2021/07/17 08:49:53;;;;;;;4.22;1.23;;;;;28.30;102541.00;;;;5069330;28;20257;-77
2021/07/17 08:52:21;;;;;;;3.28;1.50;;;;;28.50;102546.00;;;;5068831;28;20203;-77
2021/07/17 08:54:49;;;;;;;4.18;1.20;;;;;28.50;102540.00;;;;5069803;28;20238;-77
2021/07/17 08:57:16;;;;;;;1.98;1.10;;;;;28.60;102535.00;;;;5070168;28;20210;-78
2021/07/17 08:59:43;;;;;;;4.10;1.10;;;;;28.80;102535.00;;;;5070408;28;20565;-78
2021/07/17 09:02:10;;;;;;;2.97;1.08;;;;;28.90;102539.00;;;;5069994;28;20199;-77
2021/07/17 09:04:37;;;;;;;3.80;1.23;;;;;29.00;102546.00;;;;5069261;28;20669;-78
2021/07/17 09:07:06;;;;;;;2.00;1.23;;;;;29.10;102554.00;;;;5069598;28;20218;-77
2021/07/17 09:09:36;;;;;;;2.28;1.27;;;;;29.20;102565.00;;;;5069789;28;20210;-78
2021/07/17 09:12:20;;;;;;;1.50;0.82;;;;;29.20;102545.00;;;;5070280;28;20206;-77
2021/07/17 09:14:47;;;;;;;1.15;0.60;;;;;29.30;102543.00;;;;5069168;28;20234;-77
2021/07/17 09:17:23;;;;;;;2.38;0.88;;;;;29.30;102544.00;;;;5069690;28;20230;-77
2021/07/17 09:19:56;;;;;;;2.97;0.80;;;;;29.40;102548.00;;;;5069070;28;20296;-77
2021/07/17 09:22:35;;;;;;;1.73;0.70;;;;;29.40;102535.00;;;;5069247;28;20199;-77
2021/07/17 09:25:08;;;;;;;1.95;0.82;;;;;29.50;102538.00;;;;5068984;28;20214;-77
2021/07/17 09:27:36;;;;;;;3.92;0.70;;;;;29.70;102527.00;;;;5069550;28;20210;-77
2021/07/17 09:30:04;;;;;;;0.90;0.70;;;;;29.70;102535.00;;;;5069394;28;20214;-77
2021/07/17 09:32:31;;;;;;;3.33;1.02;;;;;29.80;102532.00;;;;5069334;28;20664;-77
2021/07/17 09:35:19;;;;;;;1.40;0.80;;;;;29.80;102539.00;;;;5069164;28;20605;-77
2021/07/17 09:37:55;;;;;;;3.63;1.13;;;;;29.80;102532.00;;;;5068589;28;20207;-78
2021/07/17 09:40:22;;;;;;;1.17;0.82;;;;;30.00;102535.00;;;;5069250;28;20233;-78
2021/07/17 09:42:49;;;;;;;0.85;0.68;;;;;30.00;102539.00;;;;5068869;28;20211;-78
2021/07/17 09:45:35;;;;;;;1.30;0.95;;;;;30.00;102527.00;;;;5076668;28;20574;-76
2021/07/17 09:48:22;;;;;;;0.85;0.68;;;;;30.20;102525.00;;;;5089082;28;20670;-77
2021/07/17 09:50:49;;;;;;;1.90;0.80;;;;;30.30;102534.00;;;;5088763;28;20198;-77
2021/07/17 09:53:40;;;;;;;2.03;0.70;;;;;30.10;102530.00;;;;5088840;28;20206;-78
2021/07/17 09:56:09;;;;;;;1.98;0.88;;;;;30.30;102538.00;;;;5089472;28;20595;-77
2021/07/17 09:58:38;;;;;;;1.52;0.70;;;;;30.40;102532.00;;;;5089021;28;20201;-77
2021/07/17 10:01:26;;;;;;;1.77;0.70;;;;;30.30;102524.00;;;;5088605;28;20213;-77
2021/07/17 10:04:00;;;;;;;3.53;1.00;;;;;30.40;102537.00;;;;5068705;28;20973;-77
2021/07/17 10:06:36;;;;;;;1.17;0.82;;;;;30.40;102539.00;;;;5081550;28;20202;-78
2021/07/17 10:09:07;;;;;;;1.50;0.68;;;;;30.50;102531.00;;;;5088333;28;20606;-77
2021/07/17 10:11:35;;;;;;;1.00;0.60;;;;;30.60;102534.00;;;;5088908;28;20722;-77
2021/07/17 10:14:17;;;;;;;0.68;0.60;;;;;30.50;102524.00;;;;5088890;28;20696;-77
2021/07/17 10:16:47;;;;;;;1.23;0.68;;;;;30.70;102523.00;;;;5080131;28;20194;-77
2021/07/17 10:19:16;;;;;;;2.67;1.02;;;;;30.80;102518.00;;;;5077322;28;20202;-78
2021/07/17 10:21:44;;;;;;;0.95;0.82;;;;;30.80;102530.00;;;;5074833;28;20199;-77
2021/07/17 10:24:14;;;;;;;1.90;1.05;;;;;30.80;102519.00;;;;5072893;28;20207;-78
2021/07/17 10:26:42;;;;;;;1.70;0.90;;;;;30.90;102522.00;;;;5074519;28;20201;-77
2021/07/17 10:29:12;;;;;;;1.25;0.70;;;;;30.90;102524.00;;;;5077089;28;20228;-77
2021/07/17 10:31:40;;;;;;;1.77;0.80;;;;;30.90;102529.00;;;;5082453;28;20197;-79
2021/07/17 10:34:08;;;;;;;2.05;0.73;;;;;30.90;102526.00;;;;5087659;28;20218;-77
2021/07/17 10:36:37;;;;;;;2.58;0.60;;;;;31.00;102523.00;;;;5085515;28;20217;-78
2021/07/17 10:39:07;;;;;;;4.00;0.80;;;;;31.00;102526.00;;;;5075453;28;20205;-77
2021/07/17 10:41:39;;;;;;;1.67;0.73;;;;;31.00;102523.00;;;;5075052;28;20190;-77
2021/07/17 10:44:07;;;;;;;4.00;1.25;;;;;31.10;102522.00;;;;5081605;28;20549;-77
2021/07/17 10:46:36;;;;;;;1.45;0.82;;;;;31.10;102520.00;;;;5077237;28;20233;-76
2021/07/17 10:49:07;;;;;;;1.33;0.60;;;;;31.10;102527.00;;;;5092291;28;20201;-77
2021/07/17 10:51:37;;;;;;;0.70;0.50;;;;;31.20;102532.00;;;;5072993;28;20198;-77
2021/07/17 10:54:09;;;;;;;2.15;0.70;;;;;31.20;102524.00;;;;5085340;28;20709;-78
2021/07/17 10:56:40;;;;;;;1.70;0.88;;;;;31.20;102530.00;;;;5083072;28;20193;-77
2021/07/17 10:59:23;;;;;;;1.58;0.80;;;;;31.20;102528.00;;;;5071914;28;20763;-77
2021/07/17 11:02:05;;;;;;;2.13;0.63;;;;;31.10;102530.00;;;;5073284;28;20186;-77
2021/07/17 11:04:35;;;;;;;0.93;0.60;;;;;31.10;102522.00;;;;5071674;28;20191;-77
2021/07/17 11:07:38;;;;;;;1.13;0.80;;;;;31.00;102522.00;;;;5072807;28;20191;-77
2021/07/17 11:10:20;;;;;;;1.77;0.52;;;;;31.00;102519.00;;;;5091207;28;20205;-76
2021/07/17 11:13:00;;;;;;;3.03;1.25;;;;;31.00;102524.00;;;;5090852;28;20588;-77
2021/07/17 11:15:37;;;;;;;1.42;0.73;;;;;31.00;102519.00;;;;5080408;28;20210;-77
2021/07/17 11:18:31;;;;;;;2.35;0.88;;;;;30.90;102521.00;;;;5073107;28;20195;-77
2021/07/17 11:21:00;;;;;;;2.65;0.68;;;;;31.10;102520.00;;;;5071742;28;20206;-77
2021/07/17 11:23:42;;;;;;;1.23;0.98;;;;;31.00;102533.00;;;;5073844;28;20207;-77
2021/07/17 11:26:18;;;;;;;2.70;0.90;;;;;31.00;102522.00;;;;5088764;28;20200;-76
2021/07/17 11:29:02;;;;;;;3.75;0.70;;;;;31.00;102526.00;;;;5076846;28;20199;-77
2021/07/17 11:31:47;;;;;;;3.30;0.82;;;;;31.00;102523.00;;;;5072326;28;20198;-78
2021/07/17 11:34:32;;;;;;;4.10;1.00;;;;;30.90;102518.00;;;;5079958;28;20186;-77
2021/07/17 11:37:02;;;;;;;2.42;0.85;;;;;31.00;102519.00;;;;5084131;28;20186;-77
2021/07/17 11:39:33;;;;;;;1.58;0.85;;;;;31.00;102522.00;;;;5077416;28;20191;-77
2021/07/17 11:42:01;;;;;;;4.13;1.38;;;;;31.00;102528.00;;;;5082857;28;20244;-77
2021/07/17 11:44:31;;;;;;;1.75;0.98;;;;;30.90;102518.00;;;;5069409;28;20210;-78
2021/07/17 11:47:00;;;;;;;5.13;1.83;;;;;31.00;102517.00;;;;5074296;28;20203;-77
2021/07/17 11:49:29;;;;;;;2.05;0.80;;;;;30.90;102518.00;;;;5069165;28;20198;-76
2021/07/17 11:51:59;;;;;;;1.88;0.70;;;;;31.00;102522.00;;;;5069451;28;20198;-77
2021/07/17 11:54:29;;;;;;;2.80;1.15;;;;;31.00;102521.00;;;;5073048;28;20229;-78
2021/07/17 11:57:11;;;;;;;1.35;0.90;;;;;30.90;102531.00;;;;5072685;28;20202;-77
2021/07/17 11:59:41;;;;;;;2.40;0.90;;;;;30.90;102523.00;;;;5071044;28;20195;-76
2021/07/17 12:02:11;;;;;;;3.10;1.00;;;;;30.90;102520.00;;;;5071000;28;20939;-76
2021/07/17 12:04:41;;;;;;;2.85;0.82;;;;;30.90;102510.00;;;;5070535;28;20260;-76
2021/07/17 12:07:11;;;;;;;3.42;1.45;;;;;30.90;102516.00;;;;5072375;28;21724;-79
2021/07/17 12:09:41;;;;;;;1.38;0.88;;;;;30.90;102512.00;;;;5075258;28;20202;-78
2021/07/17 12:12:39;;;;;;;3.05;1.05;;;;;30.80;102506.00;;;;5073552;28;20211;-79
2021/07/17 12:15:13;;;;;;;3.22;1.50;;;;;30.80;102509.00;;;;5073696;28;20476;-77
2021/07/17 12:17:50;;;;;;;3.42;1.17;;;;;30.90;102499.00;;;;5069224;28;20203;-77
2021/07/17 12:20:19;;;;;;;3.50;1.25;;;;;30.90;102501.00;;;;5072009;28;20193;-77